sensor_id;sensor_type;location;lat;lon;timestamp;pressure;altitude;pressure_sealevel;temperature;humidity
73105;BME280;61296;50.526;30.792;2023-10-19T00:09:23;99210.31;;;4.80;77.86
73105;BME280;61296;50.526;30.792;2023-10-19T00:24:42;99164.97;;;4.48;78.09
73105;BME280;61296;50.526;30.792;2023-10-19T00:40:03;99155.28;;;4.22;78.93
73105;BME280;61296;50.526;30.792;2023-10-19T00:55:35;99227.47;;;4.56;80.33
73105;BME280;61296;50.526;30.792;2023-10-19T01:10:57;99205.28;;;4.30;81.11
73105;BME280;61296;50.526;30.792;2023-10-19T01:26:18;99228.72;;;4.71;81.08
73105;BME280;61296;50.526;30.792;2023-10-19T01:41:56;99162.28;;;4.35;81.00
73105;BME280;61296;50.526;30.792;2023-10-19T01:57:17;99142.91;;;4.25;80.85
73105;BME280;61296;50.526;30.792;2023-10-19T02:12:37;99213.84;;;4.69;81.02
73105;BME280;61296;50.526;30.792;2023-10-19T02:27:56;99211.34;;;4.76;81.40
73105;BME280;61296;50.526;30.792;2023-10-19T02:43:16;99157.75;;;4.15;82.36
73105;BME280;61296;50.526;30.792;2023-10-19T02:58:35;99199.56;;;4.47;82.70
73105;BME280;61296;50.526;30.792;2023-10-19T03:13:54;99112.22;;;3.75;83.73
73105;BME280;61296;50.526;30.792;2023-10-19T03:29:15;99078.66;;;3.47;84.50
73105;BME280;61296;50.526;30.792;2023-10-19T03:44:42;99206.75;;;4.03;85.63
73105;BME280;61296;50.526;30.792;2023-10-19T04:00:07;99109.47;;;3.39;86.36
73105;BME280;61296;50.526;30.792;2023-10-19T04:15:33;99088.31;;;2.99;88.04
73105;BME280;61296;50.526;30.792;2023-10-19T04:30:53;99167.63;;;3.13;89.12
73105;BME280;61296;50.526;30.792;2023-10-19T04:46:12;99132.41;;;2.84;89.90
73105;BME280;61296;50.526;30.792;2023-10-19T05:01:34;99230.88;;;3.35;90.77
73105;BME280;61296;50.526;30.792;2023-10-19T05:16:53;99208.50;;;3.17;90.03
73105;BME280;61296;50.526;30.792;2023-10-19T05:32:15;99170.06;;;2.73;90.80
73105;BME280;61296;50.526;30.792;2023-10-19T05:47:34;99154.66;;;2.77;91.06
73105;BME280;61296;50.526;30.792;2023-10-19T06:02:54;99182.19;;;3.09;89.68
73105;BME280;61296;50.526;30.792;2023-10-19T06:18:13;99168.44;;;3.26;88.42
73105;BME280;61296;50.526;30.792;2023-10-19T06:33:33;99182.19;;;3.42;88.08
73105;BME280;61296;50.526;30.792;2023-10-19T06:48:52;99159.56;;;3.62;87.22
73105;BME280;61296;50.526;30.792;2023-10-19T07:04:15;99168.19;;;4.13;85.76
73105;BME280;61296;50.526;30.792;2023-10-19T07:19:34;99254.41;;;4.98;84.74
73105;BME280;61296;50.526;30.792;2023-10-19T07:34:54;99181.22;;;4.84;83.11
73105;BME280;61296;50.526;30.792;2023-10-19T07:50:14;99219.16;;;5.61;81.86
73105;BME280;61296;50.526;30.792;2023-10-19T08:05:36;99172.22;;;5.99;79.20
73105;BME280;61296;50.526;30.792;2023-10-19T08:20:57;99222.50;;;7.00;77.13
73105;BME280;61296;50.526;30.792;2023-10-19T08:36:20;99230.63;;;7.55;73.78
73105;BME280;61296;50.526;30.792;2023-10-19T08:51:43;99117.69;;;7.58;70.70
73105;BME280;61296;50.526;30.792;2023-10-19T09:07:06;99243.94;;;9.01;68.18
73105;BME280;61296;50.526;30.792;2023-10-19T09:22:35;99199.41;;;9.11;66.07
73105;BME280;61296;50.526;30.792;2023-10-19T09:37:55;99160.31;;;9.17;64.19
73105;BME280;61296;50.526;30.792;2023-10-19T09:53:18;99166.44;;;9.41;64.08
73105;BME280;61296;50.526;30.792;2023-10-19T10:08:39;99138.44;;;9.69;62.23
73105;BME280;61296;50.526;30.792;2023-10-19T10:24:00;99115.44;;;9.84;57.21
73105;BME280;61296;50.526;30.792;2023-10-19T10:39:19;99153.38;;;10.19;56.78
73105;BME280;61296;50.526;30.792;2023-10-19T10:54:43;99158.50;;;10.79;53.39
73105;BME280;61296;50.526;30.792;2023-10-19T11:10:04;99134.03;;;10.56;53.25
73105;BME280;61296;50.526;30.792;2023-10-19T11:25:25;99027.94;;;9.82;54.12
73105;BME280;61296;50.526;30.792;2023-10-19T11:40:47;99042.28;;;10.20;51.04
73105;BME280;61296;50.526;30.792;2023-10-19T11:56:08;98993.97;;;10.12;52.12
73105;BME280;61296;50.526;30.792;2023-10-19T12:11:28;98987.78;;;10.26;52.63
73105;BME280;61296;50.526;30.792;2023-10-19T12:26:49;98963.06;;;10.22;52.79
73105;BME280;61296;50.526;30.792;2023-10-19T12:42:18;98963.84;;;10.23;52.53
73105;BME280;61296;50.526;30.792;2023-10-19T12:57:37;98955.19;;;10.24;53.41
73105;BME280;61296;50.526;30.792;2023-10-19T13:12:58;98991.81;;;10.53;53.47
73105;BME280;61296;50.526;30.792;2023-10-19T13:28:18;98961.97;;;10.59;54.11
73105;BME280;61296;50.526;30.792;2023-10-19T13:43:56;98980.88;;;10.64;55.01
73105;BME280;61296;50.526;30.792;2023-10-19T13:59:16;98915.97;;;10.34;55.65
73105;BME280;61296;50.526;30.792;2023-10-19T14:14:36;98842.34;;;9.78;57.22
73105;BME280;61296;50.526;30.792;2023-10-19T14:29:58;98941.50;;;10.38;58.84
73105;BME280;61296;50.526;30.792;2023-10-19T14:45:17;98885.50;;;9.74;60.02
73105;BME280;61296;50.526;30.792;2023-10-19T15:00:36;98891.34;;;9.65;60.56
73105;BME280;61296;50.526;30.792;2023-10-19T15:16:09;98864.44;;;9.23;61.58
73105;BME280;61296;50.526;30.792;2023-10-19T15:31:28;98891.81;;;9.16;62.73
73105;BME280;61296;50.526;30.792;2023-10-19T15:46:49;98845.72;;;8.81;64.54
73105;BME280;61296;50.526;30.792;2023-10-19T16:02:10;98855.13;;;8.80;65.35
73105;BME280;61296;50.526;30.792;2023-10-19T16:17:44;98817.38;;;8.62;66.08
73105;BME280;61296;50.526;30.792;2023-10-19T16:33:06;98832.72;;;8.74;66.32
73105;BME280;61296;50.526;30.792;2023-10-19T16:48:25;98779.59;;;8.38;66.50
73105;BME280;61296;50.526;30.792;2023-10-19T17:03:45;98740.84;;;8.39;66.46
73105;BME280;61296;50.526;30.792;2023-10-19T17:19:04;98796.69;;;8.68;67.64
73105;BME280;61296;50.526;30.792;2023-10-19T17:34:24;98717.09;;;8.06;67.53
73105;BME280;61296;50.526;30.792;2023-10-19T17:49:46;98715.84;;;8.00;68.26
73105;BME280;61296;50.526;30.792;2023-10-19T18:05:13;98764.34;;;8.37;68.67
73105;BME280;61296;50.526;30.792;2023-10-19T18:20:43;98709.09;;;7.87;69.79
73105;BME280;61296;50.526;30.792;2023-10-19T18:36:30;98619.22;;;7.11;71.12
73105;BME280;61296;50.526;30.792;2023-10-19T18:51:55;98655.09;;;7.06;72.90
73105;BME280;61296;50.526;30.792;2023-10-19T19:07:17;98628.63;;;6.80;74.25
73105;BME280;61296;50.526;30.792;2023-10-19T19:22:53;98648.91;;;6.79;75.23
73105;BME280;61296;50.526;30.792;2023-10-19T19:54:14;98665.47;;;7.27;75.43
73105;BME280;61296;50.526;30.792;2023-10-19T20:10:03;98542.66;;;6.41;76.08
73105;BME280;61296;50.526;30.792;2023-10-19T20:25:41;98560.56;;;6.08;82.28
73105;BME280;61296;50.526;30.792;2023-10-19T20:41:29;98538.56;;;5.44;99.19
73105;BME280;61296;50.526;30.792;2023-10-19T21:13:18;98519.91;;;5.24;100.00
73105;BME280;61296;50.526;30.792;2023-10-19T21:28:37;98407.81;;;4.56;100.00
73105;BME280;61296;50.526;30.792;2023-10-19T21:43:56;98449.41;;;4.99;100.00
73105;BME280;61296;50.526;30.792;2023-10-19T21:59:17;98378.06;;;4.90;100.00
73105;BME280;61296;50.526;30.792;2023-10-19T22:14:36;98371.25;;;5.03;100.00
73105;BME280;61296;50.526;30.792;2023-10-19T22:29:56;98405.50;;;5.31;100.00
73105;BME280;61296;50.526;30.792;2023-10-19T22:45:16;98329.72;;;5.13;100.00
73105;BME280;61296;50.526;30.792;2023-10-19T23:00:35;98416.28;;;5.76;100.00
73105;BME280;61296;50.526;30.792;2023-10-19T23:15:56;98345.78;;;5.48;100.00
73105;BME280;61296;50.526;30.792;2023-10-19T23:31:19;98359.41;;;5.78;100.00
73105;BME280;61296;50.526;30.792;2023-10-19T23:46:47;98371.41;;;6.41;100.00
